Time;durP1;ratioP1;P1;durP2;ratioP2;P2;SDS_P1;SDS_P2;PMS_P1;PMS_P2;Temp;Humidity;BMP_temperature;BMP_pressure;BME280_temperature;BME280_humidity;BME280_pressure;Samples;Min_cycle;Max_cycle;Signal;HPM_P1;HPM_P2
2023/10/16 00:00:57;;;;;;;1.55;0.77;;;;;;;-0.65;100.00;93471.69;2107198;28;20031;-82
2023/10/16 00:02:03;;;;;;;1.13;0.80;;;;;;;-0.47;100.00;93466.13;2098515;28;20035;-81
2023/10/16 00:03:06;;;;;;;1.80;0.90;;;;;;;-0.39;100.00;93475.72;2090845;28;20020;-81
2023/10/16 00:04:07;;;;;;;0.88;0.80;;;;;;;-0.41;100.00;93472.63;2090460;28;20025;-83
2023/10/16 00:05:08;;;;;;;0.88;0.70;;;;;;;-0.35;100.00;93471.28;2090111;28;20021;-82
2023/10/16 00:06:12;;;;;;;1.15;1.05;;;;;;;-0.33;100.00;93467.22;2100473;28;20024;-82
2023/10/16 00:07:14;;;;;;;1.85;1.00;;;;;;;-0.53;100.00;93471.63;2090813;28;20025;-82
2023/10/16 00:08:16;;;;;;;3.13;1.20;;;;;;;-0.58;100.00;93469.22;2094564;28;20781;-82
2023/10/16 00:09:23;;;;;;;2.22;0.93;;;;;;;-0.59;100.00;93469.56;2098704;28;20016;-83
2023/10/16 00:10:25;;;;;;;2.80;0.88;;;;;;;-0.56;100.00;93471.53;2106497;28;20024;-82
2023/10/16 00:11:27;;;;;;;4.03;1.20;;;;;;;-0.58;100.00;93466.59;2093458;28;20099;-83
2023/10/16 00:12:29;;;;;;;0.93;0.70;;;;;;;-0.41;100.00;93470.78;2098719;28;20719;-83
2023/10/16 00:13:35;;;;;;;2.70;0.77;;;;;;;-0.46;100.00;93463.16;2104688;28;20034;-81
2023/10/16 00:14:36;;;;;;;1.20;0.90;;;;;;;-0.41;100.00;93467.38;2098141;28;20067;-81
2023/10/16 00:15:49;;;;;;;2.85;0.90;;;;;;;-0.51;100.00;93466.03;2099056;28;20025;-83
2023/10/16 00:16:50;;;;;;;1.05;0.88;;;;;;;-0.61;100.00;93463.91;2099738;28;20059;-82
2023/10/16 00:18:22;;;;;;;2.80;0.80;;;;;;;-0.49;100.00;93466.44;2090324;28;20074;-82
2023/10/16 00:19:26;;;;;;;1.38;0.85;;;;;;;-0.38;100.00;93464.84;2101167;28;20085;-83
2023/10/16 00:20:27;;;;;;;1.20;0.85;;;;;;;-0.39;100.00;93473.06;2106788;28;20051;-82
2023/10/16 00:21:30;;;;;;;1.27;0.70;;;;;;;-0.37;100.00;93476.13;2103426;28;20016;-82
2023/10/16 00:22:31;;;;;;;0.63;0.60;;;;;;;-0.41;100.00;93468.16;2090658;28;20493;-82
2023/10/16 00:23:39;;;;;;;1.15;0.70;;;;;;;-0.42;100.00;93463.25;2104297;28;20051;-82
2023/10/16 00:24:45;;;;;;;1.98;0.70;;;;;;;-0.41;100.00;93473.41;2090761;28;20025;-83
2023/10/16 00:25:50;;;;;;;1.02;0.80;;;;;;;-0.40;100.00;93468.91;2091840;28;20122;-83
2023/10/16 00:26:51;;;;;;;1.40;0.90;;;;;;;-0.45;100.00;93467.28;2093316;28;20057;-83
2023/10/16 00:27:52;;;;;;;1.17;0.82;;;;;;;-0.30;100.00;93463.16;2098184;28;20469;-83
2023/10/16 00:29:08;;;;;;;1.10;0.80;;;;;;;-0.26;100.00;93464.03;2081963;28;20120;-83
2023/10/16 00:30:09;;;;;;;1.77;0.80;;;;;;;-0.27;100.00;93467.72;2091869;28;20031;-82
2023/10/16 00:31:23;;;;;;;2.53;0.68;;;;;;;-0.25;100.00;93460.28;2090672;28;20025;-83
2023/10/16 00:32:24;;;;;;;1.35;0.80;;;;;;;-0.32;100.00;93466.13;2098263;28;20115;-83
2023/10/16 00:33:25;;;;;;;1.45;0.90;;;;;;;-0.29;100.00;93462.06;2087154;28;20028;-82
2023/10/16 00:34:25;;;;;;;1.58;0.90;;;;;;;-0.41;100.00;93462.13;2098309;28;20032;-82
2023/10/16 00:35:27;;;;;;;2.22;0.80;;;;;;;-0.35;100.00;93464.19;2098201;28;20031;-82
2023/10/16 00:36:28;;;;;;;1.58;0.90;;;;;;;-0.48;100.00;93465.34;2092716;28;20016;-82
2023/10/16 00:37:31;;;;;;;0.88;0.70;;;;;;;-0.51;100.00;93461.53;2106673;28;20032;-82
2023/10/16 00:38:36;;;;;;;1.63;0.93;;;;;;;-0.59;100.00;93464.31;2097730;28;20052;-82
2023/10/16 00:39:37;;;;;;;2.30;0.90;;;;;;;-0.49;100.00;93461.19;2091169;28;20032;-81
2023/10/16 00:40:51;;;;;;;2.50;0.80;;;;;;;-0.49;100.00;93453.31;2105337;28;20055;-81
2023/10/16 00:41:52;;;;;;;0.75;0.75;;;;;;;-0.32;100.00;93460.88;2087251;28;20021;-81
2023/10/16 00:42:53;;;;;;;1.02;0.90;;;;;;;-0.21;100.00;93444.63;2091887;28;20024;-82
2023/10/16 00:43:54;;;;;;;3.05;0.93;;;;;;;-0.19;100.00;93452.91;2098177;28;20031;-81
2023/10/16 00:44:59;;;;;;;1.42;0.77;;;;;;;-0.37;100.00;93447.22;2090027;28;20055;-82
2023/10/16 00:46:10;;;;;;;2.97;0.73;;;;;;;-0.29;100.00;93456.81;2103146;28;20028;-81
2023/10/16 00:47:11;;;;;;;1.10;0.82;;;;;;;-0.47;100.00;93453.75;2091538;28;20048;-81
2023/10/16 00:48:21;;;;;;;3.10;0.80;;;;;;;-0.54;100.00;93458.81;2101528;28;20102;-81
2023/10/16 00:49:23;;;;;;;3.28;0.82;;;;;;;-0.39;100.00;93454.69;2091503;28;20025;-82
2023/10/16 00:50:24;;;;;;;1.10;0.82;;;;;;;-0.36;100.00;93454.00;2097800;28;20063;-81
2023/10/16 00:51:27;;;;;;;2.67;0.88;;;;;;;-0.34;100.00;93452.56;2106195;28;20024;-82
2023/10/16 00:52:29;;;;;;;0.77;0.73;;;;;;;-0.34;100.00;93441.31;2106478;28;20024;-81
2023/10/16 00:53:31;;;;;;;2.03;1.00;;;;;;;-0.37;100.00;93448.00;2098387;28;20028;-82
2023/10/16 00:54:39;;;;;;;3.15;0.90;;;;;;;-0.58;100.00;93452.72;2098316;28;20020;-82
2023/10/16 00:55:40;;;;;;;1.33;0.88;;;;;;;-0.64;100.00;93446.19;2091715;28;20153;-81
2023/10/16 00:56:51;;;;;;;6.95;1.30;;;;;;;-0.66;100.00;93448.38;2093723;28;20024;-81
2023/10/16 00:57:52;;;;;;;1.33;0.77;;;;;;;-0.57;100.00;93448.97;2090906;28;20493;-81
2023/10/16 00:58:57;;;;;;;0.70;0.70;;;;;;;-0.46;100.00;93442.13;2093275;28;20028;-81
2023/10/16 00:59:58;;;;;;;1.60;1.05;;;;;;;-0.42;100.00;93444.84;2091538;28;20029;-81
2023/10/16 01:01:03;;;;;;;1.13;0.80;;;;;;;-0.53;100.00;93448.00;2094264;28;20476;-81
2023/10/16 01:02:31;;;;;;;1.30;0.80;;;;;;;-0.56;100.00;93443.41;2097389;28;20028;-82
2023/10/16 01:03:31;;;;;;;2.08;0.80;;;;;;;-0.48;100.00;93446.97;2108262;28;20034;-81
2023/10/16 01:04:32;;;;;;;2.92;0.88;;;;;;;-0.48;100.00;93446.19;2098861;28;20056;-82
2023/10/16 01:05:39;;;;;;;0.93;0.80;;;;;;;-0.34;100.00;93441.31;2090222;28;20054;-82
2023/10/16 01:06:44;;;;;;;1.80;0.77;;;;;;;-0.21;100.00;93442.00;2103955;28;20024;-81
2023/10/16 01:07:45;;;;;;;1.10;0.90;;;;;;;-0.35;100.00;93442.38;2099173;28;20111;-81
2023/10/16 01:08:49;;;;;;;0.95;0.77;;;;;;;-0.43;100.00;93445.97;2106457;28;20024;-81
2023/10/16 01:09:50;;;;;;;2.58;0.90;;;;;;;-0.53;100.00;93437.50;2098454;28;20021;-81
2023/10/16 01:10:57;;;;;;;1.13;0.60;;;;;;;-0.46;100.00;93436.88;2089986;28;20049;-81
2023/10/16 01:11:58;;;;;;;0.60;0.60;;;;;;;-0.58;100.00;93442.97;2100562;28;20032;-80
2023/10/16 01:13:01;;;;;;;1.23;0.90;;;;;;;-0.73;100.00;93437.72;2105482;28;20028;-81
2023/10/16 01:14:03;;;;;;;1.52;0.90;;;;;;;-0.60;100.00;93447.03;2106416;28;20024;-80
2023/10/16 01:15:06;;;;;;;1.33;0.80;;;;;;;-0.70;100.00;93439.63;2098148;28;20020;-81
2023/10/16 01:16:09;;;;;;;1.77;0.80;;;;;;;-0.62;100.00;93438.72;2110686;28;20477;-82
2023/10/16 01:17:12;;;;;;;2.03;1.00;;;;;;;-0.46;100.00;93438.75;2098146;28;20493;-82
2023/10/16 01:18:15;;;;;;;1.20;0.90;;;;;;;-0.51;100.00;93434.53;2087835;28;20592;-81
2023/10/16 01:19:29;;;;;;;1.85;0.80;;;;;;;-0.39;100.00;93431.81;2092421;28;20033;-81
2023/10/16 01:20:30;;;;;;;2.30;0.90;;;;;;;-0.42;100.00;93429.88;2105074;27;20024;-82
2023/10/16 01:21:32;;;;;;;1.15;0.80;;;;;;;-0.51;100.00;93435.28;2104201;28;20082;-81
2023/10/16 01:22:34;;;;;;;0.80;0.60;;;;;;;-0.52;100.00;93431.13;2114484;28;20512;-81
2023/10/16 01:23:35;;;;;;;1.33;0.90;;;;;;;-0.34;100.00;93425.56;2097887;28;20056;-82
2023/10/16 01:24:43;;;;;;;1.83;0.77;;;;;;;-0.38;100.00;93429.97;2103100;28;20500;-81
2023/10/16 01:25:48;;;;;;;1.20;0.85;;;;;;;-0.54;100.00;93432.56;2106451;28;20024;-82
2023/10/16 01:26:50;;;;;;;1.00;0.73;;;;;;;-0.70;100.00;93437.00;2109999;28;20051;-81
2023/10/16 01:27:54;;;;;;;1.13;0.90;;;;;;;-0.64;100.00;93431.19;2095564;28;20020;-81
2023/10/16 01:28:57;;;;;;;0.93;0.80;;;;;;;-0.63;100.00;93430.09;2090070;28;20035;-82
2023/10/16 01:30:01;;;;;;;1.20;0.80;;;;;;;-0.58;100.00;93426.47;2099597;28;20020;-82
2023/10/16 01:31:04;;;;;;;0.88;0.80;;;;;;;-0.63;100.00;93424.09;2089705;28;20021;-81
2023/10/16 01:32:07;;;;;;;1.25;1.15;;;;;;;-0.65;100.00;93427.06;2088696;28;20032;-82
2023/10/16 01:33:08;;;;;;;1.60;1.35;;;;;;;-0.63;100.00;93426.72;2091633;28;20024;-81
2023/10/16 01:34:12;;;;;;;1.05;0.80;;;;;;;-0.74;100.00;93415.94;2097927;28;20092;-81
2023/10/16 01:35:13;;;;;;;1.42;1.00;;;;;;;-0.76;100.00;93420.75;2103023;28;20124;-81
2023/10/16 01:36:14;;;;;;;1.67;1.08;;;;;;;-0.65;100.00;93416.56;2097696;28;20020;-81
2023/10/16 01:37:18;;;;;;;3.05;1.20;;;;;;;-0.60;100.00;93418.16;2089412;28;20398;-81
2023/10/16 01:38:19;;;;;;;1.85;1.10;;;;;;;-0.78;100.00;93413.22;2098319;28;20560;-82
2023/10/16 01:40:40;;;;;;;1.50;1.10;;;;;;;-0.62;100.00;93426.34;2107395;27;20110;-81
2023/10/16 01:41:43;;;;;;;2.50;1.00;;;;;;;-0.73;100.00;93421.97;2106014;28;20028;-82
2023/10/16 01:42:44;;;;;;;1.83;1.15;;;;;;;-0.78;100.00;93421.09;2091652;28;20363;-81
2023/10/16 01:43:45;;;;;;;1.90;1.00;;;;;;;-0.77;100.00;93420.00;2101978;28;20036;-81
2023/10/16 01:44:48;;;;;;;2.00;1.00;;;;;;;-0.80;100.00;93422.53;2103804;28;20030;-81
2023/10/16 01:45:51;;;;;;;2.17;1.10;;;;;;;-0.80;100.00;93418.03;2095293;28;20044;-81
2023/10/16 01:46:52;;;;;;;3.55;1.23;;;;;;;-0.74;100.00;93415.94;2111384;28;20046;-82
2023/10/16 01:47:53;;;;;;;1.80;1.10;;;;;;;-0.65;100.00;93410.53;2094548;28;20028;-82
2023/10/16 01:49:00;;;;;;;2.65;1.02;;;;;;;-0.65;100.00;93406.06;2097411;28;20025;-81
2023/10/16 01:50:02;;;;;;;2.05;1.00;;;;;;;-0.56;100.00;93406.66;2107018;28;20141;-82
2023/10/16 01:51:05;;;;;;;2.80;1.17;;;;;;;-0.61;100.00;93403.53;2106923;28;20039;-82
2023/10/16 01:52:10;;;;;;;1.63;1.00;;;;;;;-0.68;100.00;93404.09;2091810;28;20482;-81
2023/10/16 01:53:14;;;;;;;1.40;1.00;;;;;;;-0.67;100.00;93405.63;2094151;28;20506;-82
2023/10/16 01:54:17;;;;;;;1.17;1.00;;;;;;;-0.70;100.00;93410.78;2098850;28;20025;-82
2023/10/16 01:55:19;;;;;;;2.88;1.00;;;;;;;-0.82;100.00;93407.13;2097647;28;20027;-81
2023/10/16 01:56:21;;;;;;;1.25;1.15;;;;;;;-0.76;100.00;93405.78;2097846;28;20043;-82
2023/10/16 01:57:22;;;;;;;1.80;1.10;;;;;;;-0.79;100.00;93406.47;2105256;28;20024;-82
2023/10/16 01:58:24;;;;;;;1.50;1.00;;;;;;;-0.79;100.00;93397.81;2090196;28;20051;-81
2023/10/16 01:59:26;;;;;;;2.92;1.40;;;;;;;-0.82;100.00;93403.75;2105777;28;20027;-81
2023/10/16 02:00:34;;;;;;;1.48;1.00;;;;;;;-0.76;100.00;93395.28;2098971;28;20016;-81
2023/10/16 02:01:35;;;;;;;1.63;1.08;;;;;;;-0.85;100.00;93399.91;2092831;28;20024;-82
2023/10/16 02:02:39;;;;;;;4.82;1.13;;;;;;;-0.81;100.00;93394.78;2103599;28;20548;-82
2023/10/16 02:03:45;;;;;;;2.65;1.27;;;;;;;-0.87;100.00;93389.00;2084870;28;20441;-81
2023/10/16 02:04:46;;;;;;;2.42;1.00;;;;;;;-0.84;100.00;93393.56;2104729;28;20119;-82
2023/10/16 02:05:47;;;;;;;2.92;1.05;;;;;;;-0.74;100.00;93394.19;2108491;28;20016;-81
2023/10/16 02:06:48;;;;;;;1.60;0.98;;;;;;;-0.76;100.00;93386.66;2093859;28;20017;-82
2023/10/16 02:07:50;;;;;;;3.63;1.20;;;;;;;-0.80;100.00;93394.41;2092182;28;20445;-81
2023/10/16 02:08:51;;;;;;;3.42;1.17;;;;;;;-0.76;100.00;93389.28;2101810;28;20023;-82
2023/10/16 02:09:58;;;;;;;3.92;1.23;;;;;;;-0.74;100.00;93392.34;2095784;28;20115;-81
2023/10/16 02:10:59;;;;;;;1.38;1.00;;;;;;;-0.81;100.00;93395.53;2094803;28;20104;-81
2023/10/16 02:12:00;;;;;;;1.63;1.00;;;;;;;-0.81;100.00;93385.03;2100419;28;20086;-83
2023/10/16 02:13:01;;;;;;;2.30;1.30;;;;;;;-0.71;100.00;93386.38;2097798;28;20122;-81
2023/10/16 02:14:02;;;;;;;1.67;0.90;;;;;;;-0.71;100.00;93389.00;2090060;28;20410;-82
2023/10/16 02:15:06;;;;;;;1.13;1.00;;;;;;;-0.63;100.00;93382.84;2092794;28;20029;-82
2023/10/16 02:16:10;;;;;;;1.35;1.00;;;;;;;-0.81;100.00;93379.03;2095429;28;20121;-81
2023/10/16 02:17:22;;;;;;;2.25;1.50;;;;;;;-0.88;100.00;93379.63;2099132;28;20028;-80
2023/10/16 02:18:23;;;;;;;2.25;1.25;;;;;;;-0.82;100.00;93369.63;2100708;28;20115;-82
2023/10/16 02:19:25;;;;;;;2.92;1.60;;;;;;;-0.86;100.00;93372.16;2105369;28;20035;-81
2023/10/16 02:20:26;;;;;;;3.20;1.20;;;;;;;-0.80;100.00;93373.44;2107289;28;20127;-82
2023/10/16 02:21:28;;;;;;;4.05;1.27;;;;;;;-0.88;100.00;93371.75;2104803;28;20028;-82
2023/10/16 02:23:43;;;;;;;1.50;1.25;;;;;;;-1.40;100.00;93377.13;2130641;27;20198;-80
2023/10/16 02:24:44;;;;;;;1.33;1.20;;;;;;;-1.46;100.00;93373.97;2112284;28;20051;-79
2023/10/16 02:25:46;;;;;;;2.88;1.30;;;;;;;-1.55;100.00;93379.34;2093912;28;20056;-81
2023/10/16 02:26:55;;;;;;;3.05;1.40;;;;;;;-1.44;100.00;93377.03;2101623;28;20025;-80
2023/10/16 02:27:58;;;;;;;3.40;1.70;;;;;;;-1.47;100.00;93375.06;2098484;28;20027;-80
2023/10/16 02:29:00;;;;;;;3.13;1.83;;;;;;;-1.41;100.00;93373.72;2095607;28;20025;-80
2023/10/16 02:30:15;;;;;;;2.15;1.30;;;;;;;-1.23;100.00;93376.06;2099620;28;20072;-80
2023/10/16 02:31:20;;;;;;;2.20;1.65;;;;;;;-1.23;100.00;93373.44;2112154;28;20123;-79
2023/10/16 02:32:22;;;;;;;1.58;1.40;;;;;;;-1.28;100.00;93374.44;2104011;28;20051;-79
2023/10/16 02:33:35;;;;;;;1.80;1.70;;;;;;;-1.30;100.00;93371.41;2100047;28;20123;-79
2023/10/16 02:34:36;;;;;;;2.22;1.80;;;;;;;-1.27;100.00;93370.75;2098382;28;20028;-79
2023/10/16 02:35:37;;;;;;;2.22;1.70;;;;;;;-1.21;100.00;93371.25;2112039;28;20415;-79
2023/10/16 02:36:39;;;;;;;1.70;1.40;;;;;;;-1.36;100.00;93372.72;2111926;28;20444;-80
2023/10/16 02:37:41;;;;;;;2.53;1.63;;;;;;;-1.46;100.00;93373.19;2109807;28;20490;-79
2023/10/16 02:38:42;;;;;;;2.97;1.73;;;;;;;-1.33;100.00;93366.81;2100651;28;20036;-81
2023/10/16 02:39:50;;;;;;;2.88;1.67;;;;;;;-1.32;100.00;93363.88;2095808;28;20032;-81
2023/10/16 02:40:53;;;;;;;2.60;1.58;;;;;;;-1.37;100.00;93371.19;2102029;28;20111;-82
2023/10/16 02:41:55;;;;;;;4.82;1.40;;;;;;;-1.42;100.00;93369.59;2091313;28;20120;-81
2023/10/16 02:43:00;;;;;;;1.55;1.33;;;;;;;-1.42;100.00;93368.81;2104618;28;20056;-81
2023/10/16 02:44:02;;;;;;;8.02;1.50;;;;;;;-1.33;100.00;93370.19;2104487;28;20028;-81
2023/10/16 02:45:03;;;;;;;2.80;1.73;;;;;;;-1.43;100.00;93373.31;2101214;28;20029;-81
2023/10/16 02:46:04;;;;;;;3.55;1.77;;;;;;;-1.38;100.00;93370.44;2104420;28;20115;-81
2023/10/16 02:47:07;;;;;;;1.55;1.25;;;;;;;-1.39;100.00;93376.78;2120746;28;20384;-81
2023/10/16 02:48:09;;;;;;;1.70;1.60;;;;;;;-1.46;100.00;93368.72;2112277;28;20230;-81
2023/10/16 02:49:10;;;;;;;2.95;1.42;;;;;;;-1.38;100.00;93370.44;2095742;28;20733;-81
2023/10/16 02:50:14;;;;;;;2.67;1.35;;;;;;;-1.33;100.00;93362.34;2104184;28;21094;-81
2023/10/16 02:51:18;;;;;;;2.97;1.52;;;;;;;-1.31;100.00;93368.03;2112754;28;20031;-82
2023/10/16 02:52:19;;;;;;;1.50;1.15;;;;;;;-1.41;100.00;93368.47;2104099;28;20358;-81
2023/10/16 02:53:23;;;;;;;1.30;1.20;;;;;;;-1.33;100.00;93366.81;2105467;28;20106;-81
2023/10/16 02:54:24;;;;;;;1.33;1.00;;;;;;;-1.41;100.00;93365.09;2113120;28;20032;-82
2023/10/16 02:55:25;;;;;;;2.50;1.70;;;;;;;-1.52;100.00;93360.34;2106523;28;20060;-81
2023/10/16 02:56:26;;;;;;;1.52;1.40;;;;;;;-1.41;100.00;93362.47;2104046;28;20032;-82
2023/10/16 02:57:27;;;;;;;1.90;1.60;;;;;;;-1.31;100.00;93365.41;2095257;28;20029;-81
2023/10/16 02:58:29;;;;;;;2.50;1.30;;;;;;;-1.34;100.00;93360.06;2093273;28;20036;-82
2023/10/16 02:59:31;;;;;;;2.45;1.60;;;;;;;-1.27;100.00;93362.88;2095799;28;20428;-81
2023/10/16 03:00:37;;;;;;;2.85;1.70;;;;;;;-1.35;100.00;93367.16;2101315;28;20027;-81
2023/10/16 03:01:38;;;;;;;5.93;2.28;;;;;;;-1.42;100.00;93358.34;2096474;28;20029;-81
2023/10/16 03:02:39;;;;;;;4.60;2.30;;;;;;;-1.63;100.00;93358.50;2103926;28;20042;-82
2023/10/16 03:03:43;;;;;;;2.03;1.50;;;;;;;-1.70;100.00;93360.94;2095705;28;20029;-82
2023/10/16 03:04:48;;;;;;;3.42;1.80;;;;;;;-1.74;100.00;93363.47;2102533;28;20476;-81
2023/10/16 03:05:50;;;;;;;2.15;1.60;;;;;;;-1.64;100.00;93368.22;2096639;28;20111;-81
2023/10/16 03:06:53;;;;;;;2.42;1.58;;;;;;;-1.53;100.00;93360.69;2098341;28;20024;-81
2023/10/16 03:07:54;;;;;;;1.88;1.45;;;;;;;-1.29;100.00;93362.44;2096036;28;20027;-82
2023/10/16 03:09:13;;;;;;;1.70;1.38;;;;;;;-1.34;100.00;93363.44;2098069;28;20078;-81
2023/10/16 03:10:16;;;;;;;2.05;1.38;;;;;;;-1.33;100.00;93366.81;2109186;28;20100;-81
2023/10/16 03:11:19;;;;;;;1.95;0.98;;;;;;;-1.29;100.00;93362.44;2112504;28;20406;-82
2023/10/16 03:12:21;;;;;;;4.25;1.50;;;;;;;-1.36;100.00;93362.22;2112719;28;20032;-82
2023/10/16 03:13:24;;;;;;;1.45;1.30;;;;;;;-1.47;100.00;93358.56;2103424;28;20103;-81
2023/10/16 03:14:35;;;;;;;3.63;1.50;;;;;;;-1.50;100.00;93361.84;2096169;28;20529;-81
2023/10/16 03:15:45;;;;;;;3.38;1.45;;;;;;;-1.50;100.00;93359.22;2110680;28;20107;-82
2023/10/16 03:16:48;;;;;;;1.40;1.30;;;;;;;-1.47;100.00;93361.19;2104980;28;20024;-82
2023/10/16 03:17:50;;;;;;;1.85;1.40;;;;;;;-1.28;100.00;93361.31;2095829;28;20046;-81
2023/10/16 03:19:04;;;;;;;2.35;1.55;;;;;;;-1.43;100.00;93368.06;2095512;28;20503;-81
2023/10/16 03:20:19;;;;;;;2.95;1.40;;;;;;;-1.45;100.00;93367.63;2099174;28;20032;-81
2023/10/16 03:22:22;;;;;;;2.13;1.40;;;;;;;-1.32;100.00;93357.84;2095307;28;20087;-81
2023/10/16 03:23:23;;;;;;;2.13;1.48;;;;;;;-1.33;100.00;93361.56;2094001;28;20041;-82
2023/10/16 03:24:26;;;;;;;1.70;1.45;;;;;;;-1.44;100.00;93357.91;2079404;28;20471;-82
2023/10/16 03:26:19;;;;;;;1.80;1.30;;;;;;;-1.40;100.00;93356.16;2090575;28;20021;-82
2023/10/16 03:26:57;;;;;;;3.13;1.50;;;;;;;-1.48;100.00;93363.06;2101569;28;20036;-81
2023/10/16 03:27:58;;;;;;;1.73;1.35;;;;;;;-1.50;100.00;93356.63;2095821;28;20118;-81
2023/10/16 03:29:05;;;;;;;2.53;1.45;;;;;;;-1.50;100.00;93364.47;2087042;28;20036;-81
2023/10/16 03:30:06;;;;;;;1.63;1.52;;;;;;;-1.37;100.00;93352.84;2105240;28;20465;-81
2023/10/16 03:31:07;;;;;;;3.25;1.77;;;;;;;-1.44;100.00;93356.06;2106799;28;20520;-82
2023/10/16 03:32:08;;;;;;;1.50;1.35;;;;;;;-1.49;100.00;93352.88;2090648;28;20025;-81
2023/10/16 03:33:13;;;;;;;1.67;1.58;;;;;;;-1.40;100.00;93358.78;2095528;28;20056;-82
2023/10/16 03:34:14;;;;;;;1.80;1.40;;;;;;;-1.35;100.00;93361.91;2111023;28;20095;-82
2023/10/16 03:35:21;;;;;;;3.15;1.88;;;;;;;-1.40;100.00;93364.03;2094079;28;20032;-81
2023/10/16 03:36:22;;;;;;;3.50;1.70;;;;;;;-1.40;100.00;93369.25;2098967;28;20039;-82
2023/10/16 03:37:24;;;;;;;4.70;2.03;;;;;;;-1.56;100.00;93358.72;2089620;28;20424;-82
2023/10/16 03:38:26;;;;;;;2.30;1.60;;;;;;;-1.58;100.00;93359.06;2082235;28;20033;-81
2023/10/16 03:39:27;;;;;;;1.63;1.50;;;;;;;-1.40;100.00;93359.53;2082291;28;20105;-81
2023/10/16 03:40:28;;;;;;;2.55;1.40;;;;;;;-1.33;100.00;93359.72;2086047;28;20021;-82
2023/10/16 03:41:32;;;;;;;3.55;1.77;;;;;;;-1.39;100.00;93357.69;2098146;28;20074;-82
2023/10/16 03:42:34;;;;;;;2.35;1.50;;;;;;;-1.19;100.00;93366.44;2097591;28;20484;-82
2023/10/16 03:43:35;;;;;;;3.70;1.92;;;;;;;-1.21;100.00;93366.00;2080913;28;20033;-82
2023/10/16 03:44:38;;;;;;;1.92;1.48;;;;;;;-1.44;100.00;93356.06;2075081;28;20032;-82
2023/10/16 03:45:40;;;;;;;2.30;1.50;;;;;;;-1.36;100.00;93357.00;2089930;28;20029;-82
2023/10/16 03:46:41;;;;;;;1.95;1.70;;;;;;;-1.23;100.00;93353.22;2081369;28;20045;-82
2023/10/16 03:47:42;;;;;;;2.67;1.77;;;;;;;-1.32;100.00;93355.22;2098050;28;20500;-82
2023/10/16 03:48:44;;;;;;;4.22;1.60;;;;;;;-1.25;100.00;93360.66;2097400;28;20024;-83
2023/10/16 03:49:46;;;;;;;2.17;1.38;;;;;;;-1.34;100.00;93355.56;2089796;28;20557;-82
2023/10/16 03:50:47;;;;;;;2.35;1.73;;;;;;;-1.33;100.00;93351.09;2086375;28;20094;-82
2023/10/16 03:51:50;;;;;;;2.85;1.42;;;;;;;-1.36;100.00;93355.16;2083476;28;20776;-82
2023/10/16 03:52:55;;;;;;;2.67;1.52;;;;;;;-1.45;100.00;93353.75;2086744;28;20117;-81
2023/10/16 03:53:56;;;;;;;1.90;1.50;;;;;;;-1.44;100.00;93350.81;2087292;28;20406;-82
2023/10/16 03:55:12;;;;;;;2.17;1.42;;;;;;;-1.35;100.00;93355.91;2080991;28;20075;-83
2023/10/16 03:56:16;;;;;;;1.38;1.27;;;;;;;-1.46;100.00;93352.22;2087772;28;20160;-81
2023/10/16 03:57:20;;;;;;;1.70;1.25;;;;;;;-1.37;100.00;93350.22;2082899;28;20382;-81
2023/10/16 03:58:21;;;;;;;3.35;1.40;;;;;;;-1.32;100.00;93345.53;2089954;28;20029;-81
2023/10/16 03:59:22;;;;;;;3.70;1.88;;;;;;;-1.25;100.00;93347.56;2089668;28;20036;-81
2023/10/16 04:00:26;;;;;;;2.40;1.70;;;;;;;-1.35;100.00;93342.81;2089334;28;20032;-81
2023/10/16 04:01:28;;;;;;;5.45;2.13;;;;;;;-1.34;100.00;93346.94;2090043;28;20383;-82
2023/10/16 04:02:31;;;;;;;2.80;1.92;;;;;;;-1.35;100.00;93340.19;2090368;28;20040;-82
2023/10/16 04:03:46;;;;;;;2.38;1.73;;;;;;;-1.32;100.00;93339.50;2090009;28;20025;-82
2023/10/16 04:04:47;;;;;;;2.00;1.63;;;;;;;-1.25;100.00;93347.56;2091821;28;20075;-81
2023/10/16 04:05:49;;;;;;;2.00;1.75;;;;;;;-1.44;100.00;93340.34;2097490;28;20103;-82
2023/10/16 04:06:56;;;;;;;2.67;1.60;;;;;;;-1.22;100.00;93346.91;2097071;28;20106;-82
2023/10/16 04:07:57;;;;;;;3.55;1.58;;;;;;;-1.18;100.00;93337.25;2090549;28;20698;-81
2023/10/16 04:08:59;;;;;;;2.40;1.70;;;;;;;-1.20;100.00;93342.06;2094870;28;20070;-81
2023/10/16 04:10:21;;;;;;;4.03;1.80;;;;;;;-1.23;100.00;93345.34;2086447;28;20037;-81
2023/10/16 04:11:24;;;;;;;1.88;1.55;;;;;;;-1.13;100.00;93338.88;2100622;28;20466;-83
2023/10/16 04:12:25;;;;;;;3.42;1.52;;;;;;;-1.23;100.00;93332.25;2097827;28;20107;-81
2023/10/16 04:13:26;;;;;;;3.70;1.77;;;;;;;-0.84;100.00;93338.47;2097714;28;20111;-81
2023/10/16 04:14:45;;;;;;;1.95;1.40;;;;;;;-1.02;100.00;93326.78;2097891;28;20032;-81
2023/10/16 04:17:10;;;;;;;3.35;1.48;;;;;;;-1.28;100.00;93335.09;2102870;28;20528;-83
2023/10/16 04:18:46;;;;;;;4.43;1.65;;;;;;;-1.29;100.00;93344.06;2105422;28;20039;-80
2023/10/16 04:22:17;;;;;;;3.10;1.70;;;;;;;-1.17;100.00;93336.16;2103409;28;20081;-82
2023/10/16 04:23:36;;;;;;;2.55;1.70;;;;;;;-1.17;100.00;93338.03;2105499;28;20040;-82
2023/10/16 04:24:46;;;;;;;2.75;1.83;;;;;;;-1.15;100.00;93333.19;2084548;28;20029;-81
2023/10/16 04:26:28;;;;;;;2.28;1.70;;;;;;;-1.30;100.00;93324.97;2091879;28;20028;-82
2023/10/16 04:28:18;;;;;;;2.28;1.90;;;;;;;-1.52;100.00;93328.88;2097944;28;20772;-82
2023/10/16 04:31:43;;;;;;;3.30;1.88;;;;;;;-1.39;100.00;93320.97;2104959;28;20039;-82
2023/10/16 04:32:56;;;;;;;3.20;2.28;;;;;;;-1.41;100.00;93318.66;2098873;28;20028;-82
2023/10/16 04:34:13;;;;;;;3.25;2.95;;;;;;;-1.33;100.00;93324.88;2094998;28;20040;-81
2023/10/16 04:35:51;;;;;;;3.80;2.72;;;;;;;-1.47;100.00;93319.25;2095769;28;20040;-81
2023/10/16 04:38:53;;;;;;;4.60;4.13;;;;;;;-1.36;100.00;93325.53;2102533;28;20597;-82
2023/10/16 04:43:38;;;;;;;5.28;4.35;;;;;;;-1.44;100.00;93318.59;2098437;28;20037;-81
2023/10/16 04:45:00;;;;;;;4.35;3.95;;;;;;;-1.43;100.00;93317.50;2104066;28;20824;-83
2023/10/16 04:46:16;;;;;;;5.30;4.30;;;;;;;-1.47;100.00;93320.03;2082372;28;20024;-82
2023/10/16 04:47:19;;;;;;;4.45;4.05;;;;;;;-1.59;100.00;93322.69;2088507;28;20024;-81
2023/10/16 04:49:45;;;;;;;7.35;3.72;;;;;;;-1.56;100.00;93322.78;2085049;28;20036;-82
2023/10/16 04:50:49;;;;;;;4.43;4.03;;;;;;;-1.43;100.00;93318.25;2091183;28;20794;-82
2023/10/16 04:52:01;;;;;;;3.42;3.13;;;;;;;-1.53;100.00;93321.38;2091171;28;20070;-81
2023/10/16 04:53:11;;;;;;;4.35;2.90;;;;;;;-1.45;100.00;93317.06;2089440;28;20031;-81
2023/10/16 04:54:13;;;;;;;5.28;2.88;;;;;;;-1.66;100.00;93317.28;2090125;28;20031;-82
2023/10/16 04:55:42;;;;;;;4.75;3.40;;;;;;;-1.66;100.00;93318.03;2083879;28;20528;-82
2023/10/16 04:59:12;;;;;;;2.30;2.10;;;;;;;-1.41;100.00;93310.03;2081087;28;20084;-81
2023/10/16 04:59:59;;;;;;;;;;;;;;;-1.47;100.00;93319.25;2079872;28;20141;-83
2023/10/16 05:02:33;;;;;;;5.05;2.95;;;;;;;-1.31;100.00;93306.97;2092784;28;20017;-82
2023/10/16 05:06:14;;;;;;;2.88;2.53;;;;;;;-1.46;100.00;93305.06;2104511;28;20074;-81
2023/10/16 05:07:34;;;;;;;3.20;2.60;;;;;;;-1.36;100.00;93310.59;2103069;28;20815;-81
2023/10/16 05:11:27;;;;;;;3.90;2.55;;;;;;;-1.35;100.00;93299.00;2087659;28;20029;-82
2023/10/16 05:15:37;;;;;;;3.38;2.30;;;;;;;-0.86;100.00;93306.56;2097918;28;20036;-83
2023/10/16 05:18:04;;;;;;;3.03;1.90;;;;;;;-1.35;100.00;93304.25;2092871;28;20119;-82
2023/10/16 05:19:43;;;;;;;3.17;2.40;;;;;;;-1.41;100.00;93307.41;2093067;28;20409;-81
2023/10/16 06:14:22;;;;;;;4.43;3.00;;;;;;;-1.55;100.00;93294.72;2101991;28;20028;-82
2023/10/16 06:15:23;;;;;;;3.10;2.80;;;;;;;-1.45;100.00;93301.31;2087164;28;20079;-82
2023/10/16 06:16:28;;;;;;;3.20;2.90;;;;;;;-1.45;100.00;93303.94;2088056;28;20021;-81
2023/10/16 06:17:29;;;;;;;2.92;2.63;;;;;;;-1.50;100.00;93299.72;2096378;28;20120;-81
2023/10/16 06:18:30;;;;;;;4.28;2.80;;;;;;;-1.43;100.00;93299.91;2096189;28;20461;-81
2023/10/16 06:19:31;;;;;;;4.13;3.13;;;;;;;-1.39;100.00;93295.53;2100323;28;20028;-82
2023/10/16 06:20:32;;;;;;;3.85;2.72;;;;;;;-1.31;100.00;93293.84;2103788;28;20655;-83
2023/10/16 06:21:34;;;;;;;4.15;2.95;;;;;;;-1.31;100.00;93297.22;2087942;28;20077;-81
2023/10/16 06:22:35;;;;;;;3.08;2.58;;;;;;;-1.33;100.00;93301.28;2079455;28;20064;-79
2023/10/16 06:23:42;;;;;;;3.58;2.50;;;;;;;-1.29;100.00;93300.25;2087154;28;20037;-81
2023/10/16 06:24:47;;;;;;;3.22;2.20;;;;;;;-1.18;100.00;93305.03;2083911;28;20684;-81
2023/10/16 06:25:48;;;;;;;4.65;2.85;;;;;;;-1.20;100.00;93300.09;2081465;28;20116;-81